Andrew J. Barberi — WYR3370 — position and weather

sailwx.info

Track history (hours):
 
Tides and Currents Weather Stations Pressure Air Temp Water Temp Dewpoint Dewpoint Depression Visibility Wind Speed Wind Dir Waves Ship Positions

Andrew J. Barberi

Owner: CITY OF NEW YORK, Brooklyn, NY. More information available from US FCC via Universal Licensing System and Coast Guard Vessel Documentation Center.

Last reported at 2015-Mar-26 23:33 UTC. Time now 2015-Mar-26 23:48 UTC.
Position N 40°39' W 074°04'.

Length 94 m; draft 4.3 m.

Type: Ship. MMSI: 367000150.

Date/timePositionNaut miles runAvg speedWind from/ knotsBaromVisibWave heightAir tempDewpointWater temp
2015-Mar-26 23:33N 40°39' W 074°04'0 0.0
2015-Mar-26 22:27N 40°39' W 074°04'0 0.0
2015-Mar-26 21:33N 40°39' W 074°04'0 0.0
2015-Mar-26 20:33N 40°39' W 074°04'0 0.0
2015-Mar-26 19:33N 40°39' W 074°04'0 0.0
2015-Mar-26 18:33N 40°39' W 074°04'0 0.0
2015-Mar-26 17:33N 40°39' W 074°04'0 0.0
2015-Mar-26 16:33N 40°39' W 074°04'0 0.1
2015-Mar-26 15:33N 40°39' W 074°04'0 0.1
2015-Mar-26 14:33N 40°39' W 074°04'0 0.1
2015-Mar-26 13:33N 40°39' W 074°04'1 1.2
2015-Mar-26 12:34N 40°39' W 074°03'2 2.2
2015-Mar-26 11:34N 40°41' W 074°02'1 0.9
2015-Mar-26 10:30N 40°42' W 074°01'4 4.6
2015-Mar-26 09:33N 40°39' W 074°04'0 0.0
2015-Mar-26 08:33N 40°39' W 074°04'0 0.0
2015-Mar-26 07:16N 40°39' W 074°04'0 0.0
2015-Mar-26 06:33N 40°39' W 074°04'0 0.0
2015-Mar-26 05:33N 40°39' W 074°04'0 0.0
2015-Mar-26 04:33N 40°39' W 074°04'0 0.0
2015-Mar-26 03:33N 40°39' W 074°04'0 0.0
2015-Mar-26 02:33N 40°39' W 074°04'4 2.2
2015-Mar-26 00:33N 40°42' W 074°01'4 3.5
2015-Mar-25 23:21N 40°39' W 074°04'0 0.4
2015-Mar-25 22:34N 40°39' W 074°04'0 0.0
2015-Mar-25 21:34N 40°39' W 074°04'4 4.0
2015-Mar-25 20:33N 40°42' W 074°01'0 0.1
2015-Mar-25 19:34N 40°42' W 074°01'4 3.7
2015-Mar-25 18:24N 40°39' W 074°04'0 0.3
2015-Mar-25 17:33N 40°39' W 074°04'4 4.0
2015-Mar-25 16:33N 40°42' W 074°01'0 0.0
2015-Mar-25 15:33N 40°42' W 074°01'4 4.2
2015-Mar-25 14:34N 40°39' W 074°04'0 0.2
2015-Mar-25 13:33N 40°39' W 074°04'3 3.0
2015-Mar-25 12:33N 40°41' W 074°02'0 0.3
2015-Mar-25 11:33N 40°41' W 074°02'1 0.9
2015-Mar-25 10:33N 40°42' W 074°01'4 4.4
2015-Mar-25 09:33N 40°38' W 074°04'0 0.4
2015-Mar-25 08:31N 40°39' W 074°04'0 0.0
2015-Mar-25 07:31N 40°39' W 074°04'0 0.0
2015-Mar-25 06:31N 40°39' W 074°04'0 0.0
2015-Mar-25 05:31N 40°39' W 074°04'0 0.0
2015-Mar-25 04:31N 40°39' W 074°04'0 0.0
2015-Mar-25 03:31N 40°39' W 074°04'0 0.0
2015-Mar-25 02:31N 40°39' W 074°04'4 2.2
2015-Mar-25 00:34N 40°42' W 074°01'4 4.2
2015-Mar-24 23:33N 40°39' W 074°04'0 0.1
2015-Mar-24 22:33N 40°39' W 074°04'0 0.2
2015-Mar-24 21:33N 40°39' W 074°04'4 4.1
2015-Mar-24 20:33N 40°42' W 074°01'0 0.1
2015-Mar-24 19:26N 40°42' W 074°01'4 4.1
2015-Mar-24 18:24N 40°39' W 074°04'0 0.1
2015-Mar-24 17:33N 40°39' W 074°04'0 0.1
2015-Mar-24 16:33N 40°39' W 074°04'0 0.0
2015-Mar-24 15:33N 40°39' W 074°04'0 0.1
2015-Mar-24 14:33N 40°39' W 074°04'0 0.2
2015-Mar-24 13:34N 40°39' W 074°04'3 3.3
2015-Mar-24 12:33N 40°41' W 074°02'0 0.1
2015-Mar-24 11:33N 40°41' W 074°02'1 0.9
2015-Mar-24 10:33N 40°42' W 074°01'4 4.3
2015-Mar-24 09:33N 40°39' W 074°04'0 0.0
2015-Mar-24 08:33N 40°39' W 074°04'0 0.0
2015-Mar-24 07:29N 40°39' W 074°04'0 0.0
2015-Mar-24 06:29N 40°39' W 074°04'0 0.0
2015-Mar-24 05:29N 40°39' W 074°04'0 0.0
2015-Mar-24 04:29N 40°39' W 074°04'0 0.0
2015-Mar-24 03:23N 40°39' W 074°04'0 0.0
2015-Mar-24 02:29N 40°39' W 074°04'0 0.2
2015-Mar-24 01:33N 40°39' W 074°04'4 4.1
2015-Mar-24 00:33N 40°42' W 074°01'4 4.2
2015-Mar-23 23:33N 40°39' W 074°04'0 0.5
2015-Mar-23 22:34N 40°39' W 074°04'0 0.1
2015-Mar-23 21:34N 40°39' W 074°04'4 3.8
2015-Mar-23 20:33N 40°42' W 074°01'0 0.1
2015-Mar-23 19:33N 40°42' W 074°01'4 4.3
2015-Mar-23 18:33N 40°39' W 074°04'0 0.4
2015-Mar-23 17:33N 40°39' W 074°04'4 3.8
2015-Mar-23 16:33N 40°42' W 074°01'4 4.2
2015-Mar-23 15:34N 40°39' W 074°04'0 0.0
2015-Mar-23 14:33N 40°39' W 074°04'0 0.2
2015-Mar-23 13:33N 40°39' W 074°04'4 3.7
2015-Mar-23 12:33N 40°42' W 074°01'0 0.4
2015-Mar-23 11:33N 40°41' W 074°02'1 0.9
2015-Mar-23 10:33N 40°42' W 074°01'4 4.3
2015-Mar-23 09:33N 40°39' W 074°04'0 0.0
2015-Mar-23 08:33N 40°39' W 074°04'0 0.0
2015-Mar-23 07:30N 40°39' W 074°04'0 0.0
2015-Mar-23 06:30N 40°39' W 074°04'0 0.0
2015-Mar-23 05:30N 40°39' W 074°04'0 0.0
2015-Mar-23 04:30N 40°39' W 074°04'0 0.0
2015-Mar-23 03:30N 40°39' W 074°04'0 0.0
2015-Mar-23 02:24N 40°39' W 074°04'0 0.0
2015-Mar-23 01:30N 40°39' W 074°04'0 0.1
2015-Mar-23 00:34N 40°39' W 074°04'0 0.4
2015-Mar-22 23:34N 40°39' W 074°04'0 0.1
2015-Mar-22 22:33N 40°39' W 074°04'0 0.1
2015-Mar-22 21:34N 40°39' W 074°04'4 3.9
2015-Mar-22 20:33N 40°42' W 074°01'4 4.3
2015-Mar-22 19:33N 40°39' W 074°04'0 0.4
2015-Mar-22 18:34N 40°39' W 074°04'4 3.8
2015-Mar-22 17:33N 40°42' W 074°01'4 4.1
2015-Mar-22 16:33N 40°39' W 074°04'0 0.2
2015-Mar-22 15:33N 40°39' W 074°04'0 0.3
2015-Mar-22 14:33N 40°39' W 074°04'0 0.0
2015-Mar-22 13:29N 40°39' W 074°04'0 0.0
2015-Mar-22 12:29N 40°39' W 074°04'0 0.0
2015-Mar-22 11:29N 40°39' W 074°04'0 0.0
2015-Mar-22 10:29N 40°39' W 074°04'0 0.0
2015-Mar-22 09:29N 40°39' W 074°04'0 0.0
2015-Mar-22 08:29N 40°39' W 074°04'0 0.0
2015-Mar-22 07:29N 40°39' W 074°04'0 0.0
2015-Mar-22 06:29N 40°39' W 074°04'0 0.0
2015-Mar-22 05:29N 40°39' W 074°04'0 0.0
2015-Mar-22 04:29N 40°39' W 074°04'0 0.0
2015-Mar-22 03:29N 40°39' W 074°04'0 0.0
2015-Mar-22 02:29N 40°39' W 074°04'0 0.0
2015-Mar-22 01:33N 40°39' W 074°04'4 4.2
2015-Mar-22 00:33N 40°42' W 074°01'4 3.4
2015-Mar-21 23:22N 40°39' W 074°04'0 0.5
2015-Mar-21 22:33N 40°39' W 074°04'0 0.2
2015-Mar-21 21:33N 40°39' W 074°04'0 0.1
2015-Mar-21 20:33N 40°39' W 074°04'0 0.1
2015-Mar-21 19:33N 40°39' W 074°04'0 0.1
2015-Mar-21 18:33N 40°39' W 074°04'4 4.2
2015-Mar-21 17:33N 40°42' W 074°01'4 3.6
2015-Mar-21 16:21N 40°39' W 074°04'0 0.2
2015-Mar-21 15:33N 40°39' W 074°04'0 0.2
2015-Mar-21 14:33N 40°39' W 074°04'0 0.0
2015-Mar-21 13:28N 40°39' W 074°04'0 0.0
2015-Mar-21 12:28N 40°39' W 074°04'0 0.0
2015-Mar-21 11:22N 40°39' W 074°04'0 0.0
2015-Mar-21 10:28N 40°39' W 074°04'0 0.0
2015-Mar-21 09:22N 40°39' W 074°04'0 0.0
2015-Mar-21 08:28N 40°39' W 074°04'0 0.0
2015-Mar-21 07:28N 40°39' W 074°04'0 0.0
2015-Mar-21 06:28N 40°39' W 074°04'0 0.0
2015-Mar-21 05:28N 40°39' W 074°04'0 0.0
2015-Mar-21 04:31N 40°39' W 074°04'0 0.0
2015-Mar-21 03:28N 40°39' W 074°04'0 0.0
2015-Mar-21 02:31N 40°39' W 074°04'0 0.2
2015-Mar-21 01:33N 40°39' W 074°04'0 0.2
2015-Mar-21 00:33N 40°39' W 074°04'4 4.0
2015-Mar-20 23:33N 40°42' W 074°01'0 0.1
2015-Mar-20 22:34N 40°42' W 074°01'4 3.7
2015-Mar-20 21:33N 40°39' W 074°04'0 0.5
2015-Mar-20 20:33N 40°39' W 074°04'0 0.0
2015-Mar-20 19:33N 40°39' W 074°04'0 0.1
2015-Mar-20 18:34N 40°39' W 074°04'0 0.1
2015-Mar-20 17:33N 40°39' W 074°04'4 4.1
2015-Mar-20 16:33N 40°42' W 074°01'4 4.3
2015-Mar-20 15:33N 40°39' W 074°04'0 0.0
2015-Mar-20 14:33N 40°39' W 074°04'0 0.3
2015-Mar-20 13:33N 40°39' W 074°04'3 3.3
2015-Mar-20 12:34N 40°42' W 074°02'0 0.2
2015-Mar-20 11:33N 40°42' W 074°01'0 0.4
2015-Mar-20 10:34N 40°42' W 074°01'4 4.3
2015-Mar-20 09:33N 40°39' W 074°04'0 0.0
2015-Mar-20 08:33N 40°39' W 074°04'0 0.0
2015-Mar-20 07:32N 40°39' W 074°04'0 0.0
2015-Mar-20 06:32N 40°39' W 074°04'0 0.0
2015-Mar-20 05:32N 40°39' W 074°04'0 0.0
2015-Mar-20 04:32N 40°39' W 074°04'0 0.0
2015-Mar-20 03:32N 40°39' W 074°04'0 0.0
2015-Mar-20 02:33N 40°39' W 074°04'0 0.0
2015-Mar-20 01:32N 40°39' W 074°04'0 0.2
2015-Mar-20 00:33N 40°39' W 074°04'4 4.1
2015-Mar-19 23:31N 40°42' W 074°01'0 0.0
2015-Mar-19 22:27N 40°42' W 074°01'0 0.0
2015-Mar-19 21:33N 40°42' W 074°01'1 0.9
2015-Mar-19 20:33N 40°41' W 074°02'3 3.4
2015-Mar-19 19:33N 40°39' W 074°04'0 0.0
2015-Mar-19 18:29N 40°39' W 074°04'0 0.1
2015-Mar-19 17:33N 40°39' W 074°04'0 0.1
2015-Mar-19 16:33N 40°39' W 074°04'0 0.3
2015-Mar-19 15:34N 40°39' W 074°04'0 0.3
2015-Mar-19 14:33N 40°39' W 074°04'0 0.1
2015-Mar-19 13:33N 40°39' W 074°04'4 3.8
2015-Mar-19 12:34N 40°42' W 074°01'0 0.2
2015-Mar-19 11:33N 40°42' W 074°01'0 0.3
2015-Mar-19 10:33N 40°42' W 074°01'4 4.3
2015-Mar-19 09:34N 40°39' W 074°04'0 0.0
2015-Mar-19 08:16N 40°39' W 074°04'0 0.0
2015-Mar-19 07:29N 40°39' W 074°04'0 0.0
2015-Mar-19 06:29N 40°39' W 074°04'0 0.0
2015-Mar-19 05:29N 40°39' W 074°04'0 0.0
2015-Mar-19 04:29N 40°39' W 074°04'0 0.0
2015-Mar-19 03:29N 40°39' W 074°04'0 0.0
2015-Mar-19 02:29N 40°39' W 074°04'0 0.1
2015-Mar-19 01:33N 40°39' W 074°04'4 4.3
2015-Mar-19 00:34N 40°42' W 074°01'4 4.3
2015-Mar-18 23:34N 40°39' W 074°04'0 0.0
2015-Mar-18 22:29N 40°39' W 074°04'0 0.0
2015-Mar-18 21:29N 40°39' W 074°04'4 3.9
2015-Mar-18 20:34N 40°42' W 074°02'1 0.7
2015-Mar-18 19:33N 40°42' W 074°01'4 3.8
2015-Mar-18 18:26N 40°39' W 074°04'0 0.2
2015-Mar-18 17:33N 40°39' W 074°04'0 0.3
2015-Mar-18 16:33N 40°39' W 074°04'0 0.0
2015-Mar-18 15:33N 40°39' W 074°04'0 0.1
2015-Mar-18 14:33N 40°39' W 074°04'0 0.3
2015-Mar-18 13:34N 40°39' W 074°04'4 3.6
2015-Mar-18 12:33N 40°42' W 074°01'0 0.0
2015-Mar-18 11:33N 40°42' W 074°01'0 0.4
2015-Mar-18 10:33N 40°42' W 074°01'4 4.3
2015-Mar-18 09:33N 40°38' W 074°04'0 0.2
2015-Mar-18 08:29N 40°39' W 074°04'0 0.0
2015-Mar-18 07:33N 40°39' W 074°04'0 0.0
2015-Mar-18 06:33N 40°39' W 074°04'0 0.0
2015-Mar-18 05:33N 40°39' W 074°04'0 0.0
2015-Mar-18 04:33N 40°39' W 074°04'0 0.0
2015-Mar-18 03:33N 40°39' W 074°04'0 0.0
2015-Mar-18 02:33N 40°39' W 074°04'0 0.1
2015-Mar-18 01:33N 40°39' W 074°04'4 4.1
2015-Mar-18 00:33N 40°42' W 074°01'4 3.9
2015-Mar-17 23:30N 40°39' W 074°04'0 0.0
2015-Mar-17 22:28N 40°39' W 074°04'0 0.1
2015-Mar-17 21:33N 40°39' W 074°04'4 4.2
2015-Mar-17 20:34N 40°42' W 074°01'0 0.0
2015-Mar-17 19:26N 40°42' W 074°01'4 4.2
2015-Mar-17 18:25N 40°39' W 074°04'0 0.2
2015-Mar-17 17:33N 40°39' W 074°04'4 4.1
2015-Mar-17 16:33N 40°42' W 074°01'4 4.3
2015-Mar-17 15:33N 40°39' W 074°04'0 0.0
2015-Mar-17 14:34N 40°39' W 074°04'0 0.2
2015-Mar-17 13:33N 40°39' W 074°04'3 3.2
2015-Mar-17 12:33N 40°41' W 074°02'0 0.2
2015-Mar-17 11:33N 40°41' W 074°02'1 0.8
2015-Mar-17 10:33N 40°42' W 074°01'4 4.4
2015-Mar-17 09:33N 40°39' W 074°04'0 0.0
2015-Mar-17 08:21N 40°39' W 074°04'0 0.0
2015-Mar-17 07:34N 40°39' W 074°04'0 0.0
2015-Mar-17 06:33N 40°39' W 074°04'0 0.0
2015-Mar-17 05:33N 40°39' W 074°04'0 0.0
2015-Mar-17 04:28N 40°39' W 074°04'0 0.0
2015-Mar-17 03:28N 40°39' W 074°04'0 0.0
2015-Mar-17 02:33N 40°39' W 074°04'0 0.2
2015-Mar-17 01:34N 40°39' W 074°04'4 4.2
2015-Mar-17 00:33N 40°42' W 074°01'4 4.2
2015-Mar-16 23:33N 40°39' W 074°04'  
Track history (hours):
 
Tides and Currents Weather Stations Pressure Air Temp Water Temp Dewpoint Dewpoint Depression Visibility Wind Speed Wind Dir Waves Ship Positions

Andrew J. Barberi

Owner: CITY OF NEW YORK, Brooklyn, NY. More information available from US FCC via Universal Licensing System and Coast Guard Vessel Documentation Center.

Last reported at 2015-Mar-26 23:33 UTC. Time now 2015-Mar-26 23:48 UTC.
Position N 40°39' W 074°04'.

Length 94 m; draft 4.3 m.

Type: Ship. MMSI: 367000150.

Date/timePositionNaut miles runAvg speedWind from/ knotsBaromVisibWave heightAir tempDewpointWater temp
2015-Mar-26 23:33N 40°39' W 074°04'0 0.0
2015-Mar-26 22:27N 40°39' W 074°04'0 0.0
2015-Mar-26 21:33N 40°39' W 074°04'0 0.0
2015-Mar-26 20:33N 40°39' W 074°04'0 0.0
2015-Mar-26 19:33N 40°39' W 074°04'0 0.0
2015-Mar-26 18:33N 40°39' W 074°04'0 0.0
2015-Mar-26 17:33N 40°39' W 074°04'0 0.0
2015-Mar-26 16:33N 40°39' W 074°04'0 0.1
2015-Mar-26 15:33N 40°39' W 074°04'0 0.1
2015-Mar-26 14:33N 40°39' W 074°04'0 0.1
2015-Mar-26 13:33N 40°39' W 074°04'1 1.2
2015-Mar-26 12:34N 40°39' W 074°03'2 2.2
2015-Mar-26 11:34N 40°41' W 074°02'1 0.9
2015-Mar-26 10:30N 40°42' W 074°01'4 4.6
2015-Mar-26 09:33N 40°39' W 074°04'0 0.0
2015-Mar-26 08:33N 40°39' W 074°04'0 0.0
2015-Mar-26 07:16N 40°39' W 074°04'0 0.0
2015-Mar-26 06:33N 40°39' W 074°04'0 0.0
2015-Mar-26 05:33N 40°39' W 074°04'0 0.0
2015-Mar-26 04:33N 40°39' W 074°04'0 0.0
2015-Mar-26 03:33N 40°39' W 074°04'0 0.0
2015-Mar-26 02:33N 40°39' W 074°04'4 2.2
2015-Mar-26 00:33N 40°42' W 074°01'4 3.5
2015-Mar-25 23:21N 40°39' W 074°04'0 0.4
2015-Mar-25 22:34N 40°39' W 074°04'0 0.0
2015-Mar-25 21:34N 40°39' W 074°04'4 4.0
2015-Mar-25 20:33N 40°42' W 074°01'0 0.1
2015-Mar-25 19:34N 40°42' W 074°01'4 3.7
2015-Mar-25 18:24N 40°39' W 074°04'0 0.3
2015-Mar-25 17:33N 40°39' W 074°04'4 4.0
2015-Mar-25 16:33N 40°42' W 074°01'0 0.0
2015-Mar-25 15:33N 40°42' W 074°01'4 4.2
2015-Mar-25 14:34N 40°39' W 074°04'0 0.2
2015-Mar-25 13:33N 40°39' W 074°04'3 3.0
2015-Mar-25 12:33N 40°41' W 074°02'0 0.3
2015-Mar-25 11:33N 40°41' W 074°02'1 0.9
2015-Mar-25 10:33N 40°42' W 074°01'4 4.4
2015-Mar-25 09:33N 40°38' W 074°04'0 0.4
2015-Mar-25 08:31N 40°39' W 074°04'0 0.0
2015-Mar-25 07:31N 40°39' W 074°04'0 0.0
2015-Mar-25 06:31N 40°39' W 074°04'0 0.0
2015-Mar-25 05:31N 40°39' W 074°04'0 0.0
2015-Mar-25 04:31N 40°39' W 074°04'0 0.0
2015-Mar-25 03:31N 40°39' W 074°04'0 0.0
2015-Mar-25 02:31N 40°39' W 074°04'4 2.2
2015-Mar-25 00:34N 40°42' W 074°01'4 4.2
2015-Mar-24 23:33N 40°39' W 074°04'0 0.1
2015-Mar-24 22:33N 40°39' W 074°04'0 0.2
2015-Mar-24 21:33N 40°39' W 074°04'4 4.1
2015-Mar-24 20:33N 40°42' W 074°01'0 0.1
2015-Mar-24 19:26N 40°42' W 074°01'4 4.1
2015-Mar-24 18:24N 40°39' W 074°04'0 0.1
2015-Mar-24 17:33N 40°39' W 074°04'0 0.1
2015-Mar-24 16:33N 40°39' W 074°04'0 0.0
2015-Mar-24 15:33N 40°39' W 074°04'0 0.1
2015-Mar-24 14:33N 40°39' W 074°04'0 0.2
2015-Mar-24 13:34N 40°39' W 074°04'3 3.3
2015-Mar-24 12:33N 40°41' W 074°02'0 0.1
2015-Mar-24 11:33N 40°41' W 074°02'1 0.9
2015-Mar-24 10:33N 40°42' W 074°01'4 4.3
2015-Mar-24 09:33N 40°39' W 074°04'0 0.0
2015-Mar-24 08:33N 40°39' W 074°04'0 0.0
2015-Mar-24 07:29N 40°39' W 074°04'0 0.0
2015-Mar-24 06:29N 40°39' W 074°04'0 0.0
2015-Mar-24 05:29N 40°39' W 074°04'0 0.0
2015-Mar-24 04:29N 40°39' W 074°04'0 0.0
2015-Mar-24 03:23N 40°39' W 074°04'0 0.0
2015-Mar-24 02:29N 40°39' W 074°04'0 0.2
2015-Mar-24 01:33N 40°39' W 074°04'4 4.1
2015-Mar-24 00:33N 40°42' W 074°01'4 4.2
2015-Mar-23 23:33N 40°39' W 074°04'0 0.5
2015-Mar-23 22:34N 40°39' W 074°04'0 0.1
2015-Mar-23 21:34N 40°39' W 074°04'4 3.8
2015-Mar-23 20:33N 40°42' W 074°01'0 0.1
2015-Mar-23 19:33N 40°42' W 074°01'4 4.3
2015-Mar-23 18:33N 40°39' W 074°04'0 0.4
2015-Mar-23 17:33N 40°39' W 074°04'4 3.8
2015-Mar-23 16:33N 40°42' W 074°01'4 4.2
2015-Mar-23 15:34N 40°39' W 074°04'0 0.0
2015-Mar-23 14:33N 40°39' W 074°04'0 0.2
2015-Mar-23 13:33N 40°39' W 074°04'4 3.7
2015-Mar-23 12:33N 40°42' W 074°01'0 0.4
2015-Mar-23 11:33N 40°41' W 074°02'1 0.9
2015-Mar-23 10:33N 40°42' W 074°01'4 4.3
2015-Mar-23 09:33N 40°39' W 074°04'0 0.0
2015-Mar-23 08:33N 40°39' W 074°04'0 0.0
2015-Mar-23 07:30N 40°39' W 074°04'0 0.0
2015-Mar-23 06:30N 40°39' W 074°04'0 0.0
2015-Mar-23 05:30N 40°39' W 074°04'0 0.0
2015-Mar-23 04:30N 40°39' W 074°04'0 0.0
2015-Mar-23 03:30N 40°39' W 074°04'0 0.0
2015-Mar-23 02:24N 40°39' W 074°04'0 0.0
2015-Mar-23 01:30N 40°39' W 074°04'0 0.1
2015-Mar-23 00:34N 40°39' W 074°04'0 0.4
2015-Mar-22 23:34N 40°39' W 074°04'0 0.1
2015-Mar-22 22:33N 40°39' W 074°04'0 0.1
2015-Mar-22 21:34N 40°39' W 074°04'4 3.9
2015-Mar-22 20:33N 40°42' W 074°01'4 4.3
2015-Mar-22 19:33N 40°39' W 074°04'0 0.4
2015-Mar-22 18:34N 40°39' W 074°04'4 3.8
2015-Mar-22 17:33N 40°42' W 074°01'4 4.1
2015-Mar-22 16:33N 40°39' W 074°04'0 0.2
2015-Mar-22 15:33N 40°39' W 074°04'0 0.3
2015-Mar-22 14:33N 40°39' W 074°04'0 0.0
2015-Mar-22 13:29N 40°39' W 074°04'0 0.0
2015-Mar-22 12:29N 40°39' W 074°04'0 0.0
2015-Mar-22 11:29N 40°39' W 074°04'0 0.0
2015-Mar-22 10:29N 40°39' W 074°04'0 0.0
2015-Mar-22 09:29N 40°39' W 074°04'0 0.0
2015-Mar-22 08:29N 40°39' W 074°04'0 0.0
2015-Mar-22 07:29N 40°39' W 074°04'0 0.0
2015-Mar-22 06:29N 40°39' W 074°04'0 0.0
2015-Mar-22 05:29N 40°39' W 074°04'0 0.0
2015-Mar-22 04:29N 40°39' W 074°04'0 0.0
2015-Mar-22 03:29N 40°39' W 074°04'0 0.0
2015-Mar-22 02:29N 40°39' W 074°04'0 0.0
2015-Mar-22 01:33N 40°39' W 074°04'4 4.2
2015-Mar-22 00:33N 40°42' W 074°01'4 3.4
2015-Mar-21 23:22N 40°39' W 074°04'0 0.5
2015-Mar-21 22:33N 40°39' W 074°04'0 0.2
2015-Mar-21 21:33N 40°39' W 074°04'0 0.1
2015-Mar-21 20:33N 40°39' W 074°04'0 0.1
2015-Mar-21 19:33N 40°39' W 074°04'0 0.1
2015-Mar-21 18:33N 40°39' W 074°04'4 4.2
2015-Mar-21 17:33N 40°42' W 074°01'4 3.6
2015-Mar-21 16:21N 40°39' W 074°04'0 0.2
2015-Mar-21 15:33N 40°39' W 074°04'0 0.2
2015-Mar-21 14:33N 40°39' W 074°04'0 0.0
2015-Mar-21 13:28N 40°39' W 074°04'0 0.0
2015-Mar-21 12:28N 40°39' W 074°04'0 0.0
2015-Mar-21 11:22N 40°39' W 074°04'0 0.0
2015-Mar-21 10:28N 40°39' W 074°04'0 0.0
2015-Mar-21 09:22N 40°39' W 074°04'0 0.0
2015-Mar-21 08:28N 40°39' W 074°04'0 0.0
2015-Mar-21 07:28N 40°39' W 074°04'0 0.0
2015-Mar-21 06:28N 40°39' W 074°04'0 0.0
2015-Mar-21 05:28N 40°39' W 074°04'0 0.0
2015-Mar-21 04:31N 40°39' W 074°04'0 0.0
2015-Mar-21 03:28N 40°39' W 074°04'0 0.0
2015-Mar-21 02:31N 40°39' W 074°04'0 0.2
2015-Mar-21 01:33N 40°39' W 074°04'0 0.2
2015-Mar-21 00:33N 40°39' W 074°04'4 4.0
2015-Mar-20 23:33N 40°42' W 074°01'0 0.1
2015-Mar-20 22:34N 40°42' W 074°01'4 3.7
2015-Mar-20 21:33N 40°39' W 074°04'0 0.5
2015-Mar-20 20:33N 40°39' W 074°04'0 0.0
2015-Mar-20 19:33N 40°39' W 074°04'0 0.1
2015-Mar-20 18:34N 40°39' W 074°04'0 0.1
2015-Mar-20 17:33N 40°39' W 074°04'4 4.1
2015-Mar-20 16:33N 40°42' W 074°01'4 4.3
2015-Mar-20 15:33N 40°39' W 074°04'0 0.0
2015-Mar-20 14:33N 40°39' W 074°04'0 0.3
2015-Mar-20 13:33N 40°39' W 074°04'3 3.3
2015-Mar-20 12:34N 40°42' W 074°02'0 0.2
2015-Mar-20 11:33N 40°42' W 074°01'0 0.4
2015-Mar-20 10:34N 40°42' W 074°01'4 4.3
2015-Mar-20 09:33N 40°39' W 074°04'0 0.0
2015-Mar-20 08:33N 40°39' W 074°04'0 0.0
2015-Mar-20 07:32N 40°39' W 074°04'0 0.0
2015-Mar-20 06:32N 40°39' W 074°04'0 0.0
2015-Mar-20 05:32N 40°39' W 074°04'0 0.0
2015-Mar-20 04:32N 40°39' W 074°04'0 0.0
2015-Mar-20 03:32N 40°39' W 074°04'0 0.0
2015-Mar-20 02:33N 40°39' W 074°04'0 0.0
2015-Mar-20 01:32N 40°39' W 074°04'0 0.2
2015-Mar-20 00:33N 40°39' W 074°04'4 4.1
2015-Mar-19 23:31N 40°42' W 074°01'0 0.0
2015-Mar-19 22:27N 40°42' W 074°01'0 0.0
2015-Mar-19 21:33N 40°42' W 074°01'1 0.9
2015-Mar-19 20:33N 40°41' W 074°02'3 3.4
2015-Mar-19 19:33N 40°39' W 074°04'0 0.0
2015-Mar-19 18:29N 40°39' W 074°04'0 0.1
2015-Mar-19 17:33N 40°39' W 074°04'0 0.1
2015-Mar-19 16:33N 40°39' W 074°04'0 0.3
2015-Mar-19 15:34N 40°39' W 074°04'0 0.3
2015-Mar-19 14:33N 40°39' W 074°04'0 0.1
2015-Mar-19 13:33N 40°39' W 074°04'4 3.8
2015-Mar-19 12:34N 40°42' W 074°01'0 0.2
2015-Mar-19 11:33N 40°42' W 074°01'0 0.3
2015-Mar-19 10:33N 40°42' W 074°01'4 4.3
2015-Mar-19 09:34N 40°39' W 074°04'0 0.0
2015-Mar-19 08:16N 40°39' W 074°04'0 0.0
2015-Mar-19 07:29N 40°39' W 074°04'0 0.0
2015-Mar-19 06:29N 40°39' W 074°04'0 0.0
2015-Mar-19 05:29N 40°39' W 074°04'0 0.0
2015-Mar-19 04:29N 40°39' W 074°04'0 0.0
2015-Mar-19 03:29N 40°39' W 074°04'0 0.0
2015-Mar-19 02:29N 40°39' W 074°04'0 0.1
2015-Mar-19 01:33N 40°39' W 074°04'4 4.3
2015-Mar-19 00:34N 40°42' W 074°01'4 4.3
2015-Mar-18 23:34N 40°39' W 074°04'0 0.0
2015-Mar-18 22:29N 40°39' W 074°04'0 0.0
2015-Mar-18 21:29N 40°39' W 074°04'4 3.9
2015-Mar-18 20:34N 40°42' W 074°02'1 0.7
2015-Mar-18 19:33N 40°42' W 074°01'4 3.8
2015-Mar-18 18:26N 40°39' W 074°04'0 0.2
2015-Mar-18 17:33N 40°39' W 074°04'0 0.3
2015-Mar-18 16:33N 40°39' W 074°04'0 0.0
2015-Mar-18 15:33N 40°39' W 074°04'0 0.1
2015-Mar-18 14:33N 40°39' W 074°04'0 0.3
2015-Mar-18 13:34N 40°39' W 074°04'4 3.6
2015-Mar-18 12:33N 40°42' W 074°01'0 0.0
2015-Mar-18 11:33N 40°42' W 074°01'0 0.4
2015-Mar-18 10:33N 40°42' W 074°01'4 4.3
2015-Mar-18 09:33N 40°38' W 074°04'0 0.2
2015-Mar-18 08:29N 40°39' W 074°04'0 0.0
2015-Mar-18 07:33N 40°39' W 074°04'0 0.0
2015-Mar-18 06:33N 40°39' W 074°04'0 0.0
2015-Mar-18 05:33N 40°39' W 074°04'0 0.0
2015-Mar-18 04:33N 40°39' W 074°04'0 0.0
2015-Mar-18 03:33N 40°39' W 074°04'0 0.0
2015-Mar-18 02:33N 40°39' W 074°04'0 0.1
2015-Mar-18 01:33N 40°39' W 074°04'4 4.1
2015-Mar-18 00:33N 40°42' W 074°01'4 3.9
2015-Mar-17 23:30N 40°39' W 074°04'0 0.0
2015-Mar-17 22:28N 40°39' W 074°04'0 0.1
2015-Mar-17 21:33N 40°39' W 074°04'4 4.2
2015-Mar-17 20:34N 40°42' W 074°01'0 0.0
2015-Mar-17 19:26N 40°42' W 074°01'4 4.2
2015-Mar-17 18:25N 40°39' W 074°04'0 0.2
2015-Mar-17 17:33N 40°39' W 074°04'4 4.1
2015-Mar-17 16:33N 40°42' W 074°01'4 4.3
2015-Mar-17 15:33N 40°39' W 074°04'0 0.0
2015-Mar-17 14:34N 40°39' W 074°04'0 0.2
2015-Mar-17 13:33N 40°39' W 074°04'3 3.2
2015-Mar-17 12:33N 40°41' W 074°02'0 0.2
2015-Mar-17 11:33N 40°41' W 074°02'1 0.8
2015-Mar-17 10:33N 40°42' W 074°01'4 4.4
2015-Mar-17 09:33N 40°39' W 074°04'0 0.0
2015-Mar-17 08:21N 40°39' W 074°04'0 0.0
2015-Mar-17 07:34N 40°39' W 074°04'0 0.0
2015-Mar-17 06:33N 40°39' W 074°04'0 0.0
2015-Mar-17 05:33N 40°39' W 074°04'0 0.0
2015-Mar-17 04:28N 40°39' W 074°04'0 0.0
2015-Mar-17 03:28N 40°39' W 074°04'0 0.0
2015-Mar-17 02:33N 40°39' W 074°04'0 0.2
2015-Mar-17 01:34N 40°39' W 074°04'4 4.2
2015-Mar-17 00:33N 40°42' W 074°01'4 4.2
2015-Mar-16 23:33N 40°39' W 074°04'  

Dump ship's entire track history